createdAt,value
2022-09-28T00:01:21.125Z,59986.63
2022-09-28T00:03:53.177Z,59986.63
2022-09-28T00:06:24.593Z,59986.63
2022-09-28T00:08:54.175Z,59986.63
2022-09-28T00:11:27.563Z,59986.63
2022-09-28T00:14:00.171Z,59986.63
2022-09-28T00:16:33.498Z,59986.63
2022-09-28T00:19:03.171Z,59986.63
2022-09-28T00:21:34.739Z,59986.63
2022-09-28T04:03:20.602Z,59986.63
2022-09-28T04:06:54.122Z,59986.63
2022-09-28T04:10:21.327Z,59986.63
2022-09-28T04:13:49.578Z,59986.63
2022-09-28T04:17:16.450Z,59986.63
2022-09-28T04:20:46.057Z,59986.63
2022-09-28T04:24:14.401Z,59986.63
2022-09-28T04:27:58.832Z,59986.63
2022-09-28T04:31:25.754Z,59986.63
2022-09-28T04:34:52.530Z,59986.63
2022-09-28T04:38:35.662Z,59986.63
2022-09-28T04:42:07.784Z,59986.63
2022-09-28T04:45:34.553Z,59986.63
2022-09-28T04:49:02.016Z,59986.63
2022-09-28T04:52:30.678Z,59986.63
2022-09-28T04:55:59.701Z,59986.63
2022-09-28T04:59:27.099Z,59986.63
2022-09-28T05:02:04.257Z,59986.63
2022-09-28T05:04:32.597Z,59986.63
2022-09-28T05:07:00.893Z,59986.63
2022-09-28T05:09:29.197Z,59986.63
2022-09-28T05:11:58.930Z,59986.63
2022-09-28T05:14:45.065Z,98924.50
2022-09-28T05:18:11.741Z,59986.63
2022-09-28T05:21:40.928Z,59986.63
2022-09-28T05:25:07.966Z,59986.63
2022-09-28T05:28:36.071Z,59986.63
2022-09-28T05:32:04.210Z,59986.63
2022-09-28T05:35:31.295Z,59986.63
2022-09-28T05:39:03.992Z,59986.63
2022-09-28T05:42:30.957Z,59986.63
2022-09-28T05:46:00.204Z,59986.63
2022-09-28T05:49:29.148Z,59986.63
2022-09-28T05:52:58.660Z,59986.63
2022-09-28T05:56:25.725Z,59986.63
2022-09-28T05:59:52.534Z,59986.63
2022-09-28T06:02:22.390Z,98924.50
2022-09-28T06:08:08.229Z,59986.63
2022-09-28T06:10:37.126Z,59986.63
2022-09-28T06:14:05.073Z,59986.63
2022-09-28T06:17:33.163Z,59986.63
2022-09-28T06:21:00.222Z,59986.63
2022-09-28T06:24:27.154Z,59986.63
2022-09-28T06:27:57.764Z,59986.63
2022-09-28T06:31:25.241Z,59986.63
2022-09-28T06:34:04.954Z,98924.50
2022-09-28T06:37:33.071Z,59986.63
2022-09-28T06:40:59.978Z,59986.63
2022-09-28T06:44:27.079Z,59986.63
2022-09-28T06:47:54.267Z,59986.63
2022-09-28T06:51:22.586Z,59986.63
2022-09-28T06:53:56.863Z,59986.63
2022-09-28T06:56:28.291Z,59986.63
2022-09-28T06:58:58.940Z,59986.63
2022-09-28T07:01:27.363Z,59986.63
2022-09-28T07:03:56.636Z,59986.63
2022-09-28T07:06:26.793Z,59986.63
2022-09-28T07:09:26.991Z,59986.63
2022-09-28T07:12:15.837Z,59986.63
2022-09-28T07:14:57.666Z,59986.63
2022-09-28T07:18:25.224Z,59986.63
2022-09-28T07:20:54.749Z,59986.63
2022-09-28T07:24:23.466Z,59986.63
2022-09-28T07:27:50.196Z,59986.63
2022-09-28T07:31:17.171Z,59986.63
2022-09-28T07:34:44.683Z,59986.63
2022-09-28T07:38:12.400Z,59986.63
2022-09-28T07:41:41.451Z,59986.63
2022-09-28T07:45:08.760Z,59986.63
2022-09-28T07:48:36.834Z,59986.63
2022-09-28T07:52:04.090Z,59986.63
2022-09-28T07:55:30.786Z,59986.63
2022-09-28T07:58:59.187Z,59986.63
2022-09-28T08:02:26.308Z,59986.63
2022-09-28T08:05:53.070Z,59986.63
2022-09-28T08:09:19.789Z,59986.63
2022-09-28T08:12:47.277Z,59986.63
2022-09-28T08:16:15.645Z,59986.63
2022-09-28T08:19:59.605Z,59986.63
2022-09-28T08:23:26.438Z,59986.63
2022-09-28T08:26:55.612Z,59986.63
2022-09-28T08:29:38.383Z,59986.63
2022-09-28T08:33:07.793Z,59986.63
2022-09-28T08:36:34.578Z,59986.63
2022-09-28T08:39:02.914Z,59986.63
2022-09-28T08:41:46.430Z,79143.47
2022-09-28T08:45:21.064Z,59986.63
2022-09-28T08:48:32.359Z,98924.50
2022-09-28T08:52:02.646Z,59986.63
2022-09-28T08:55:37.914Z,59986.63
2022-09-28T08:59:12.986Z,59986.63
2022-09-28T09:02:19.726Z,59986.63
2022-09-28T09:04:51.587Z,59986.63
2022-09-28T09:07:51.227Z,59986.63
2022-09-28T09:10:46.625Z,59986.63
2022-09-28T09:14:13.154Z,98924.50
2022-09-28T09:17:00.400Z,59986.63
2022-09-28T09:19:42.212Z,59986.63
2022-09-28T09:22:18.429Z,59986.63
2022-09-28T09:25:04.636Z,59986.63
2022-09-28T09:29:05.642Z,59986.63
2022-09-28T09:31:53.130Z,59986.63
2022-09-28T09:36:04.562Z,59986.63
2022-09-28T09:39:55.740Z,59986.63
2022-09-28T09:43:48.883Z,59986.63
2022-09-28T09:47:21.938Z,59986.63
2022-09-28T09:50:53.877Z,59986.63
2022-09-28T09:53:28.846Z,59986.63
2022-09-28T09:57:04.242Z,59986.63
2022-09-28T10:00:34.369Z,59986.63
2022-09-28T10:03:55.776Z,59986.63
2022-09-28T10:07:29.837Z,59986.63
2022-09-28T10:11:08.352Z,59986.63
2022-09-28T10:14:35.722Z,59986.63
2022-09-28T10:18:06.616Z,59986.63
2022-09-28T10:20:54.649Z,59986.63
2022-09-28T10:24:03.372Z,59986.63
2022-09-28T10:26:37.698Z,59986.63
2022-09-28T10:29:14.861Z,59986.63
2022-09-28T10:31:46.717Z,59986.63
2022-09-28T10:34:19.800Z,59986.63
2022-09-28T10:36:55.380Z,59986.63
2022-09-28T10:39:33.284Z,59986.63
2022-09-28T10:42:07.705Z,59986.63
2022-09-28T10:44:51.076Z,59986.63
2022-09-28T10:47:23.672Z,75453.44
2022-09-28T10:49:53.472Z,98924.50
2022-09-28T10:52:45.503Z,98857.44
2022-09-28T10:55:33.295Z,59986.63
2022-09-28T10:58:19.531Z,59986.63
2022-09-28T11:01:46.920Z,59986.63
2022-09-28T11:04:23.745Z,59986.63
2022-09-28T11:06:53.794Z,59986.63
2022-09-28T11:09:31.219Z,59986.63
2022-09-28T11:12:01.684Z,59986.63
2022-09-28T11:14:41.898Z,59986.63
2022-09-28T11:17:26.840Z,59986.63
2022-09-28T11:19:56.250Z,59986.63
2022-09-28T11:22:30.635Z,59986.63
2022-09-28T11:26:18.342Z,59986.63
2022-09-28T11:28:53.905Z,59986.63
2022-09-28T11:31:30.040Z,59986.63
2022-09-28T11:34:14.174Z,59986.63
2022-09-28T11:37:09.523Z,59986.63
2022-09-28T11:40:01.198Z,59986.63
2022-09-28T11:42:44.186Z,59986.63
2022-09-28T11:45:34.509Z,59986.63
2022-09-28T11:48:09.817Z,59986.63
2022-09-28T11:50:49.438Z,59986.63
2022-09-28T11:53:29.502Z,59986.63
2022-09-28T11:56:21.935Z,59986.63
2022-09-28T11:58:54.799Z,59986.63
2022-09-28T12:01:31.295Z,59986.63
2022-09-28T12:04:08.039Z,59986.63
2022-09-28T12:06:46.051Z,59986.63
2022-09-28T12:09:22.841Z,59986.63
2022-09-28T12:11:58.943Z,59986.63
2022-09-28T12:14:34.869Z,59986.63
2022-09-28T12:17:11.029Z,59986.63
2022-09-28T12:19:49.931Z,59986.63
2022-09-28T12:22:26.009Z,59986.63
2022-09-28T12:24:58.774Z,59986.63
2022-09-28T12:27:34.373Z,59986.63
2022-09-28T12:30:13.911Z,59986.63
2022-09-28T12:32:48.464Z,98857.44
2022-09-28T12:35:28.602Z,59986.63
2022-09-28T12:38:25.041Z,59986.63
2022-09-28T12:41:03.924Z,59986.63
2022-09-28T12:43:58.580Z,59986.63
2022-09-28T12:47:00.657Z,59986.63
2022-09-28T12:52:59.425Z,59986.63
2022-09-28T12:55:48.402Z,59986.63
2022-09-28T12:59:00.409Z,59986.63
2022-09-28T13:01:55.806Z,59986.63
2022-09-28T13:05:03.737Z,59986.63
2022-09-28T13:07:40.370Z,59986.63
2022-09-28T13:10:21.962Z,59986.63
2022-09-28T13:13:14.534Z,59986.63
2022-09-28T13:16:49.186Z,59986.63
2022-09-28T13:20:26.773Z,59986.63
2022-09-28T13:24:27.947Z,59986.63
2022-09-28T13:27:27.048Z,59986.63
2022-09-28T13:30:01.372Z,59986.63
2022-09-28T13:33:19.930Z,59986.63
2022-09-28T13:35:49.478Z,59986.63
2022-09-28T13:38:55.434Z,59986.63
2022-09-28T13:41:32.043Z,59986.63
2022-09-28T13:44:47.193Z,59986.63
2022-09-28T13:47:31.342Z,59986.63
2022-09-28T13:50:19.163Z,59986.63
2022-09-28T13:52:55.921Z,59986.63
2022-09-28T13:55:40.566Z,59986.63
2022-09-28T13:58:22.920Z,59986.63
2022-09-28T14:01:05.343Z,59986.63
2022-09-28T14:03:55.196Z,59986.63
2022-09-28T14:06:28.247Z,59986.63
2022-09-28T14:09:25.873Z,59986.63
2022-09-28T14:12:01.735Z,59986.63
2022-09-28T14:14:52.869Z,59986.63
2022-09-28T14:18:07.516Z,59986.63
2022-09-28T14:20:37.568Z,59986.63
2022-09-28T14:23:57.586Z,59986.63
2022-09-28T14:26:54.991Z,59986.63
2022-09-28T14:29:30.110Z,59986.63
2022-09-28T14:32:05.376Z,59986.63
2022-09-28T14:34:39.768Z,59986.63
2022-09-28T14:37:40.775Z,98857.44
2022-09-28T14:40:39.048Z,98856.59
2022-09-28T14:43:39.630Z,98855.63
2022-09-28T14:46:38.289Z,98849.97
2022-09-28T14:50:01.875Z,59986.63
2022-09-28T14:52:46.453Z,59986.63
2022-09-28T14:55:28.087Z,98848.53
2022-09-28T14:58:00.322Z,98850.56
2022-09-28T15:00:32.056Z,98854.72
2022-09-28T15:03:54.724Z,75301.13
2022-09-28T15:06:29.432Z,59986.63
2022-09-28T15:08:58.188Z,59986.63
2022-09-28T15:11:29.050Z,98854.50
2022-09-28T15:15:08.478Z,59986.63
2022-09-28T15:17:54.249Z,59986.63
2022-09-28T15:21:35.207Z,59986.63
2022-09-28T15:24:03.898Z,59986.63
2022-09-28T15:27:35.995Z,59986.63
2022-09-28T15:30:49.716Z,75311.00
2022-09-28T15:33:45.068Z,98869.59
2022-09-28T15:36:20.705Z,98866.06
2022-09-28T15:38:58.738Z,98874.72
2022-09-28T15:41:28.025Z,98883.00
2022-09-28T15:44:29.137Z,98882.41
2022-09-28T15:47:14.206Z,98882.53
2022-09-28T15:49:57.277Z,98896.28
2022-09-28T15:52:34.108Z,98893.94
2022-09-28T15:55:16.923Z,98899.53
2022-09-28T15:57:45.960Z,98897.97
2022-09-28T16:00:30.060Z,98904.00
2022-09-28T16:03:01.925Z,98912.66
2022-09-28T16:05:43.327Z,98905.09
2022-09-28T16:08:25.253Z,98907.22
2022-09-28T16:11:05.827Z,98902.72
2022-09-28T16:13:35.788Z,98920.03
2022-09-28T16:16:04.473Z,98912.81
2022-09-28T16:18:41.970Z,98911.50
2022-09-28T16:21:46.273Z,98911.50
2022-09-28T16:24:28.572Z,59986.63
2022-09-28T16:27:03.836Z,98906.03
2022-09-28T16:29:40.393Z,98914.94
2022-09-28T16:32:41.869Z,98918.50
2022-09-28T16:35:22.314Z,98915.28
2022-09-28T16:38:01.814Z,98923.47
2022-09-28T16:40:31.333Z,98927.63
2022-09-28T16:43:06.513Z,98931.44
2022-09-28T16:45:37.008Z,98930.13
2022-09-28T16:48:06.516Z,98945.63
2022-09-28T16:50:35.721Z,98941.72
2022-09-28T16:53:31.980Z,59986.63
2022-09-28T16:56:01.966Z,59986.63
2022-09-28T16:58:33.481Z,98941.72
2022-09-28T17:01:02.807Z,59986.63
2022-09-28T17:03:32.041Z,59986.63
2022-09-28T17:08:30.355Z,59986.63
2022-09-28T17:11:22.788Z,98941.72
2022-09-28T17:13:57.030Z,98978.56
2022-09-28T17:17:06.256Z,98972.31
2022-09-28T17:19:23.215Z,98982.28
2022-09-28T17:21:52.925Z,98981.88
2022-09-28T17:24:22.685Z,98983.13
2022-09-28T17:26:53.374Z,98987.06
2022-09-28T17:29:24.036Z,98989.91
2022-09-28T17:31:53.096Z,98999.66
2022-09-28T17:34:22.514Z,98997.16
2022-09-28T17:36:51.149Z,99000.13
2022-09-28T17:39:21.812Z,98999.50
2022-09-28T17:41:51.014Z,98995.50
2022-09-28T17:44:20.645Z,99001.56
2022-09-28T17:46:52.573Z,98995.63
2022-09-28T17:49:21.493Z,98995.63
2022-09-28T17:51:53.118Z,59986.63
2022-09-28T17:54:22.953Z,98998.34
2022-09-28T17:56:51.727Z,98998.34
2022-09-28T17:59:20.814Z,98998.34
2022-09-28T18:01:51.125Z,98998.34
2022-09-28T18:04:50.143Z,99000.34
2022-09-28T18:09:40.949Z,98998.66
2022-09-28T18:12:10.085Z,99000.50
2022-09-28T18:14:42.497Z,98999.94
2022-09-28T18:17:13.210Z,99001.00
2022-09-28T18:19:42.557Z,99003.28
2022-09-28T18:22:13.688Z,98998.19
2022-09-28T18:24:43.910Z,59986.63
2022-09-28T18:27:13.371Z,99000.78
2022-09-28T18:29:42.540Z,99005.28
2022-09-28T18:32:12.985Z,99005.28
2022-09-28T18:34:43.379Z,99010.00
2022-09-28T18:37:13.033Z,99008.28
2022-09-28T18:39:42.303Z,99014.22
2022-09-28T18:42:12.474Z,99008.38
2022-09-28T18:44:41.661Z,99008.38
2022-09-28T18:47:14.722Z,99014.94
2022-09-28T18:49:46.667Z,75566.19
2022-09-28T18:52:15.943Z,99014.94
2022-09-28T18:54:47.893Z,59986.63
2022-09-28T18:57:16.949Z,59986.63
2022-09-28T18:59:47.038Z,59986.63
2022-09-28T19:02:17.943Z,99022.88
2022-09-28T19:04:47.410Z,99029.09
2022-09-28T19:07:17.036Z,99017.84
2022-09-28T19:09:46.675Z,99017.72
2022-09-28T19:12:17.061Z,99015.22
2022-09-28T19:14:47.326Z,99016.47
2022-09-28T19:17:18.288Z,99027.41
2022-09-28T19:19:47.484Z,99026.50
2022-09-28T19:22:16.355Z,99023.00
2022-09-28T19:24:45.818Z,99028.72
2022-09-28T19:27:15.254Z,99019.25
2022-09-28T19:29:44.120Z,99025.41
2022-09-28T19:32:13.416Z,99028.16
2022-09-28T19:34:44.101Z,99024.53
2022-09-28T19:37:13.440Z,99024.53
2022-09-28T19:39:42.439Z,99024.53
2022-09-28T19:42:11.747Z,99031.84
2022-09-28T19:44:40.902Z,99031.84
2022-09-28T19:47:13.390Z,99031.84
2022-09-28T19:49:44.612Z,99037.38
2022-09-28T19:52:17.697Z,99037.38
2022-09-28T19:54:52.189Z,75686.88
2022-09-28T19:57:21.197Z,75686.88
2022-09-28T19:59:52.661Z,99049.44
